Beechwood, Michigan
Current Conditions -  °F | °C
As of 2:55 AM on Friday 24 Oct 2014 (Local Time) from KLNL Reporting Station
Haze Haze  
Wind Chill: 44°   Ceiling: 100
Heat Index: 44°   Visibility: 0.75mi
Dew Point: 44°   Wind: 0mph
Humidity: 100%   Direction: NA
Pressure: 30"   Gusts: NA
Location:  46.2163°N, 88.7676°W
Report Text: KLNL 240755Z AUTO 00000KT 3/4SM BR OVC001 07/07 A3000 RMK AO2 T00670067
Loading
Personal Weather Stations






























Interactive Weather Map New forecast layout! Learn more

10-Day Weather Forecast

Advertisements
Track Severe Weather on mobile